Time;durP1;ratioP1;P1;durP2;ratioP2;P2;SDS_P1;SDS_P2;PMS_P1;PMS_P2;Temp;Humidity;BMP_temperature;BMP_pressure;BME280_temperature;BME280_humidity;BME280_pressure;Samples;Min_cycle;Max_cycle;Signal;HPM_P1;HPM_P2
2023/07/17 00:01:36;;;;;;;23.13;14.68;;;15.40;99.90;;;;;;5054388;28;20194;-73
2023/07/17 00:04:07;;;;;;;22.08;13.23;;;15.50;99.90;;;;;;5054352;28;20197;-73
2023/07/17 00:06:38;;;;;;;24.50;14.23;;;15.40;99.90;;;;;;5054301;28;20200;-73
2023/07/17 00:09:09;;;;;;;21.63;13.45;;;15.50;99.90;;;;;;5053727;28;20244;-73
2023/07/17 00:11:40;;;;;;;24.98;14.18;;;15.50;99.90;;;;;;5054103;28;20216;-73
2023/07/17 00:14:13;;;;;;;19.90;10.93;;;15.60;99.90;;;;;;5054073;28;20541;-73
2023/07/17 00:16:46;;;;;;;19.63;10.15;;;15.60;99.90;;;;;;5054331;28;20316;-73
2023/07/17 00:19:17;;;;;;;24.45;11.35;;;15.60;99.90;;;;;;5054041;28;20198;-72
2023/07/17 00:21:48;;;;;;;21.55;12.27;;;15.60;99.90;;;;;;5069581;28;20668;-73
2023/07/17 00:24:19;;;;;;;21.75;12.00;;;15.70;99.90;;;;;;5053353;28;20205;-73
2023/07/17 00:26:50;;;;;;;23.55;13.45;;;15.80;99.90;;;;;;5055865;28;20206;-73
2023/07/17 00:29:25;;;;;;;15.63;8.85;;;15.90;99.90;;;;;;5053358;28;20198;-73
2023/07/17 00:31:59;;;;;;;15.85;8.73;;;16.00;99.90;;;;;;5053706;28;20201;-73
2023/07/17 00:34:30;;;;;;;18.63;10.68;;;16.10;99.90;;;;;;5053851;28;20193;-73
2023/07/17 00:37:01;;;;;;;17.33;10.60;;;16.20;99.90;;;;;;5053477;28;20232;-73
2023/07/17 00:39:32;;;;;;;21.98;11.35;;;16.30;99.90;;;;;;5053623;28;20660;-73
2023/07/17 00:42:04;;;;;;;18.52;9.65;;;16.30;99.90;;;;;;5053106;28;20193;-73
2023/07/17 00:44:36;;;;;;;14.02;8.75;;;16.30;99.90;;;;;;5053925;28;20193;-73
2023/07/17 00:47:10;;;;;;;14.30;9.15;;;16.30;99.90;;;;;;5053486;28;20701;-74
2023/07/17 00:49:42;;;;;;;15.88;8.90;;;16.60;99.90;;;;;;5053436;28;20201;-73
2023/07/17 00:52:14;;;;;;;15.75;8.27;;;16.70;99.90;;;;;;5053380;28;20244;-73
2023/07/17 00:54:45;;;;;;;15.93;7.13;;;16.80;99.90;;;;;;5053390;28;20194;-73
2023/07/17 00:57:18;;;;;;;14.98;7.07;;;16.90;99.90;;;;;;5052883;28;20225;-73
2023/07/17 00:59:50;;;;;;;17.70;6.05;;;17.00;99.90;;;;;;5052483;28;20565;-73
2023/07/17 01:02:24;;;;;;;12.38;5.22;;;17.00;99.90;;;;;;5052806;28;20285;-73
2023/07/17 01:04:55;;;;;;;14.98;4.90;;;17.10;99.90;;;;;;5053316;28;20195;-73
2023/07/17 01:07:26;;;;;;;13.23;4.82;;;17.20;99.90;;;;;;5053128;28;20232;-73
2023/07/17 01:09:58;;;;;;;9.23;4.30;;;17.20;99.90;;;;;;5052573;28;20723;-73
2023/07/17 01:12:32;;;;;;;9.23;3.63;;;17.20;99.90;;;;;;5051859;28;20207;-73
2023/07/17 01:15:03;;;;;;;14.48;3.95;;;17.10;99.90;;;;;;5053252;28;20656;-73
2023/07/17 01:17:36;;;;;;;9.68;3.92;;;17.10;99.90;;;;;;5052524;28;20660;-74
2023/07/17 01:20:09;;;;;;;10.73;4.50;;;17.10;99.90;;;;;;5053119;28;20200;-74
2023/07/17 01:22:54;;;;;;;7.43;3.17;;;16.90;99.90;;;;;;5052958;28;20190;-73
2023/07/17 01:25:25;;;;;;;8.98;2.80;;;16.90;99.90;;;;;;5052664;28;20661;-73
2023/07/17 01:27:56;;;;;;;9.82;3.10;;;16.90;99.90;;;;;;5053084;28;20209;-74
2023/07/17 01:30:27;;;;;;;9.57;3.10;;;16.90;99.90;;;;;;5052595;28;20212;-74
2023/07/17 01:32:58;;;;;;;10.27;3.60;;;17.00;99.90;;;;;;5052058;28;20201;-74
2023/07/17 01:35:29;;;;;;;9.80;3.65;;;17.10;99.90;;;;;;5052405;28;20197;-74
2023/07/17 01:38:02;;;;;;;14.68;5.40;;;17.30;99.90;;;;;;5053444;28;20196;-74
2023/07/17 01:40:33;;;;;;;8.43;3.90;;;17.40;99.90;;;;;;5052917;28;20186;-74
2023/07/17 01:43:04;;;;;;;8.43;4.10;;;17.40;99.90;;;;;;5052990;28;20200;-74
2023/07/17 01:45:35;;;;;;;8.50;3.60;;;17.30;99.90;;;;;;5053032;28;20215;-74
2023/07/17 01:48:07;;;;;;;9.00;3.33;;;17.30;99.90;;;;;;5052829;28;20586;-74
2023/07/17 01:50:38;;;;;;;8.95;3.80;;;17.30;99.90;;;;;;5053859;28;20197;-74
2023/07/17 01:53:11;;;;;;;9.02;3.38;;;17.40;99.90;;;;;;5051786;28;20197;-74
2023/07/17 01:55:42;;;;;;;8.10;3.10;;;17.40;99.90;;;;;;5052602;28;20571;-74
2023/07/17 01:58:13;;;;;;;8.57;3.15;;;17.50;99.90;;;;;;5054630;28;20204;-74
2023/07/17 02:00:44;;;;;;;10.07;3.92;;;17.50;99.90;;;;;;5052959;28;20186;-74
2023/07/17 02:03:15;;;;;;;9.65;3.92;;;17.60;99.90;;;;;;5052381;28;20190;-74
2023/07/17 02:05:46;;;;;;;8.40;3.30;;;17.70;99.90;;;;;;5052538;28;20194;-74
2023/07/17 02:08:19;;;;;;;8.60;3.47;;;17.70;99.90;;;;;;5052413;28;20327;-73
2023/07/17 02:10:53;;;;;;;7.28;3.05;;;17.80;99.90;;;;;;5052558;28;20194;-74
2023/07/17 02:13:24;;;;;;;11.23;3.35;;;17.80;99.90;;;;;;5055432;28;20563;-74
2023/07/17 02:15:56;;;;;;;7.93;3.05;;;17.80;99.90;;;;;;5056646;28;20193;-74
2023/07/17 02:18:29;;;;;;;7.82;2.72;;;17.70;99.90;;;;;;5056259;28;20645;-74
2023/07/17 02:21:00;;;;;;;7.10;2.97;;;17.70;99.90;;;;;;5055748;28;20197;-74
2023/07/17 02:23:33;;;;;;;6.28;2.80;;;17.80;99.90;;;;;;5056303;28;20194;-74
2023/07/17 02:26:05;;;;;;;8.40;3.20;;;17.90;99.90;;;;;;5055621;28;20200;-74
2023/07/17 02:28:36;;;;;;;8.05;3.10;;;18.00;99.90;;;;;;5055874;28;20255;-74
2023/07/17 02:31:07;;;;;;;6.20;2.63;;;18.00;99.90;;;;;;5056020;28;20204;-74
2023/07/17 02:33:38;;;;;;;9.27;3.05;;;18.10;99.90;;;;;;5055791;28;20247;-74
2023/07/17 02:36:10;;;;;;;7.70;3.25;;;18.00;99.90;;;;;;5055521;28;20193;-74
2023/07/17 02:38:43;;;;;;;8.90;3.78;;;18.00;99.90;;;;;;5055877;28;20209;-74
2023/07/17 02:41:14;;;;;;;11.02;3.95;;;18.00;99.90;;;;;;5056130;28;20186;-74
2023/07/17 02:43:45;;;;;;;9.73;3.63;;;17.90;99.90;;;;;;5055903;28;20194;-73
2023/07/17 02:46:16;;;;;;;5.80;3.28;;;18.00;99.90;;;;;;5055718;28;20232;-74
2023/07/17 02:48:47;;;;;;;10.30;3.08;;;18.10;99.90;;;;;;5055590;28;20193;-74
2023/07/17 02:51:18;;;;;;;11.60;3.70;;;18.10;99.90;;;;;;5055156;28;20197;-74
2023/07/17 02:53:51;;;;;;;8.10;3.80;;;18.10;99.90;;;;;;5055614;28;20190;-74
2023/07/17 02:56:23;;;;;;;7.50;3.25;;;18.00;99.90;;;;;;5055601;28;20585;-74
2023/07/17 02:58:56;;;;;;;6.97;2.72;;;18.00;99.90;;;;;;5055590;28;20189;-75
2023/07/17 03:01:28;;;;;;;5.57;2.47;;;17.90;99.90;;;;;;5055388;28;20649;-74
2023/07/17 03:03:59;;;;;;;5.63;2.28;;;17.90;99.90;;;;;;5055335;28;20562;-74
2023/07/17 03:06:30;;;;;;;8.18;2.78;;;17.80;99.90;;;;;;5056033;28;20680;-74
2023/07/17 03:09:03;;;;;;;5.03;2.33;;;17.70;99.90;;;;;;5055274;28;20264;-74
2023/07/17 03:11:34;;;;;;;6.40;2.20;;;17.70;99.90;;;;;;5055184;28;20209;-74
2023/07/17 03:14:05;;;;;;;5.80;2.58;;;17.80;99.90;;;;;;5055273;28;20186;-74
2023/07/17 03:16:37;;;;;;;8.60;2.70;;;17.80;99.90;;;;;;5054879;28;20557;-74
2023/07/17 03:19:08;;;;;;;5.22;2.53;;;17.80;99.90;;;;;;5055983;28;20646;-74
2023/07/17 03:21:39;;;;;;;6.28;2.63;;;17.80;99.90;;;;;;5054662;28;20668;-74
2023/07/17 03:24:12;;;;;;;5.45;2.78;;;17.80;99.90;;;;;;5055024;28;20196;-74
2023/07/17 03:26:43;;;;;;;6.78;2.55;;;17.70;99.90;;;;;;5054629;28;20652;-74
2023/07/17 03:29:14;;;;;;;6.53;2.50;;;17.60;99.90;;;;;;5055123;28;20212;-74
2023/07/17 03:31:45;;;;;;;7.18;2.15;;;17.50;99.90;;;;;;5054783;28;20208;-74
2023/07/17 03:34:16;;;;;;;8.25;2.17;;;17.50;99.90;;;;;;5055536;28;20644;-74
2023/07/17 03:36:47;;;;;;;5.22;1.63;;;17.40;99.90;;;;;;5054863;28;20701;-74
2023/07/17 03:39:20;;;;;;;7.55;2.10;;;17.50;99.90;;;;;;5055109;28;20194;-74
2023/07/17 03:41:51;;;;;;;5.85;1.95;;;17.50;99.90;;;;;;5054415;28;20197;-74
2023/07/17 03:44:22;;;;;;;5.93;1.80;;;17.50;99.90;;;;;;5074824;28;20197;-74
2023/07/17 03:46:54;;;;;;;6.22;1.90;;;17.50;99.90;;;;;;5058481;28;20222;-74
2023/07/17 03:49:25;;;;;;;7.07;2.05;;;17.50;99.90;;;;;;5054640;28;20189;-74
2023/07/17 03:51:57;;;;;;;6.20;1.95;;;17.50;99.90;;;;;;5057846;28;20193;-74
2023/07/17 03:54:31;;;;;;;5.80;1.95;;;17.60;99.90;;;;;;5054491;28;20189;-74
2023/07/17 03:57:02;;;;;;;5.18;1.50;;;17.60;99.90;;;;;;5054379;28;20680;-74
2023/07/17 03:59:50;;;;;;;8.77;3.30;;;17.60;99.90;;;;;;5054500;28;20565;-74
2023/07/17 04:02:21;;;;;;;5.10;1.60;;;17.60;99.90;;;;;;5053112;28;20707;-74
2023/07/17 04:04:52;;;;;;;7.22;2.10;;;17.60;99.90;;;;;;5054299;28;20189;-74
2023/07/17 04:07:24;;;;;;;6.43;1.63;;;17.60;99.90;;;;;;5054625;28;20205;-74
2023/07/17 04:09:57;;;;;;;4.57;1.50;;;17.50;99.90;;;;;;5053412;28;20248;-74
2023/07/17 04:12:28;;;;;;;5.50;1.45;;;17.50;99.90;;;;;;5054131;28;20186;-74
2023/07/17 04:14:59;;;;;;;6.55;1.67;;;17.40;99.90;;;;;;5053416;28;20224;-74
2023/07/17 04:17:30;;;;;;;9.18;1.88;;;17.40;99.90;;;;;;5053522;28;20217;-74
2023/07/17 04:20:01;;;;;;;6.15;1.75;;;17.40;99.90;;;;;;5054042;28;20288;-74
2023/07/17 04:22:32;;;;;;;3.75;1.35;;;17.40;99.90;;;;;;5053577;28;20194;-74
2023/07/17 04:25:07;;;;;;;6.88;2.00;;;17.40;99.90;;;;;;5053981;28;20197;-74
2023/07/17 04:27:38;;;;;;;6.30;1.95;;;17.40;99.90;;;;;;5053872;28;20189;-74
2023/07/17 04:30:10;;;;;;;5.93;1.80;;;17.40;99.90;;;;;;5052289;28;20208;-74
2023/07/17 04:32:42;;;;;;;5.70;1.88;;;17.50;99.90;;;;;;5052871;28;20205;-74
2023/07/17 04:35:13;;;;;;;6.22;1.73;;;17.50;99.90;;;;;;5053154;28;20186;-74
2023/07/17 04:37:45;;;;;;;10.35;2.08;;;17.50;99.90;;;;;;5053547;28;20217;-74
2023/07/17 04:40:18;;;;;;;9.30;1.80;;;17.50;99.90;;;;;;5053779;28;20190;-74
2023/07/17 04:42:49;;;;;;;5.82;1.98;;;17.50;99.90;;;;;;5054805;28;20193;-74
2023/07/17 04:45:20;;;;;;;8.60;2.10;;;17.60;99.90;;;;;;5053346;28;20649;-74
2023/07/17 04:47:52;;;;;;;5.10;2.08;;;17.70;99.90;;;;;;5073425;28;20270;-74
2023/07/17 04:50:24;;;;;;;5.55;1.45;;;17.70;99.90;;;;;;5073543;28;20641;-74
2023/07/17 04:52:56;;;;;;;9.48;2.40;;;17.80;99.90;;;;;;5063685;28;20240;-74
2023/07/17 04:55:29;;;;;;;7.97;2.08;;;17.80;99.90;;;;;;5053252;28;20209;-74
2023/07/17 04:58:00;;;;;;;12.48;2.38;;;17.80;99.90;;;;;;5052937;28;20213;-74
2023/07/17 05:00:33;;;;;;;6.85;1.90;;;17.80;99.90;;;;;;5053725;28;20193;-74
2023/07/17 05:03:04;;;;;;;5.65;1.80;;;17.90;99.90;;;;;;5052507;28;20201;-74
2023/07/17 05:05:35;;;;;;;6.35;1.77;;;17.90;99.90;;;;;;5053125;28;20746;-74
2023/07/17 05:08:06;;;;;;;7.22;1.80;;;17.80;99.90;;;;;;5052998;28;20236;-74
2023/07/17 05:10:39;;;;;;;6.38;1.70;;;17.90;99.90;;;;;;5052582;28;20201;-74
2023/07/17 05:13:10;;;;;;;5.75;1.58;;;18.00;99.90;;;;;;5053155;28;20205;-74
2023/07/17 05:15:44;;;;;;;7.82;1.70;;;18.00;99.90;;;;;;5053266;28;20552;-74
2023/07/17 05:18:15;;;;;;;5.85;1.77;;;18.00;99.90;;;;;;5053399;28;20224;-75
2023/07/17 05:20:47;;;;;;;12.88;2.00;;;18.00;99.90;;;;;;5052597;28;20661;-74
2023/07/17 05:23:19;;;;;;;10.48;1.60;;;18.00;99.90;;;;;;5053151;28;20185;-74
2023/07/17 05:25:58;;;;;;;5.50;1.27;;;18.00;99.90;;;;;;5052751;28;20201;-75
2023/07/17 05:28:29;;;;;;;4.97;1.17;;;18.00;99.90;;;;;;5052934;28;20352;-74
2023/07/17 05:31:00;;;;;;;5.03;1.13;;;18.00;99.90;;;;;;5052647;28;20606;-74
2023/07/17 05:33:32;;;;;;;6.28;1.25;;;18.00;99.90;;;;;;5052569;28;20197;-74
2023/07/17 05:36:03;;;;;;;4.55;1.20;;;18.10;99.90;;;;;;5053006;28;20201;-74
2023/07/17 05:38:34;;;;;;;5.65;1.23;;;18.10;99.90;;;;;;5052273;28;20315;-74
2023/07/17 05:41:07;;;;;;;5.60;1.48;;;18.00;99.90;;;;;;5052915;28;20190;-74
2023/07/17 05:43:38;;;;;;;7.10;1.10;;;18.00;99.90;;;;;;5052702;28;20194;-74
2023/07/17 05:46:09;;;;;;;8.00;1.30;;;18.00;99.90;;;;;;5053063;28;20590;-74
2023/07/17 05:48:41;;;;;;;3.40;1.23;;;18.00;99.90;;;;;;5057664;28;20197;-74
2023/07/17 05:51:12;;;;;;;6.35;1.20;;;18.00;99.90;;;;;;5056410;28;20193;-74
2023/07/17 05:53:43;;;;;;;4.95;1.00;;;18.00;99.90;;;;;;5057089;28;20186;-75
2023/07/17 05:56:17;;;;;;;5.35;1.25;;;17.90;99.90;;;;;;5056474;28;20638;-74
2023/07/17 05:58:48;;;;;;;4.68;1.15;;;17.90;99.90;;;;;;5059010;28;20220;-74
2023/07/17 06:01:19;;;;;;;5.18;0.90;;;17.90;99.90;;;;;;5056537;28;20201;-75
2023/07/17 06:03:50;;;;;;;4.07;1.00;;;17.90;99.90;;;;;;5056585;28;20271;-74
2023/07/17 06:06:22;;;;;;;6.72;0.95;;;17.90;99.90;;;;;;5056224;28;20208;-74
2023/07/17 06:08:53;;;;;;;6.40;1.10;;;17.80;99.90;;;;;;5055816;28;20233;-74
2023/07/17 06:11:26;;;;;;;5.68;1.10;;;17.80;99.90;;;;;;5057964;28;20251;-74
2023/07/17 06:13:57;;;;;;;6.13;1.20;;;17.70;99.90;;;;;;5057074;28;20204;-74
2023/07/17 06:16:28;;;;;;;7.97;1.73;;;17.80;99.90;;;;;;5056459;28;20644;-74
2023/07/17 06:18:59;;;;;;;7.55;1.33;;;17.70;99.90;;;;;;5066798;28;20684;-74
2023/07/17 06:21:30;;;;;;;6.65;1.45;;;17.70;99.90;;;;;;5074060;28;20558;-74
2023/07/17 06:24:01;;;;;;;7.65;1.00;;;17.60;99.90;;;;;;5056054;28;20213;-74
2023/07/17 06:26:34;;;;;;;7.75;1.25;;;17.60;99.90;;;;;;5056065;28;20551;-74
2023/07/17 06:29:05;;;;;;;6.93;1.40;;;17.50;99.90;;;;;;5056107;28;20249;-74
2023/07/17 06:31:36;;;;;;;4.78;0.98;;;17.40;99.90;;;;;;5055691;28;20189;-74
2023/07/17 06:34:07;;;;;;;7.32;1.35;;;17.40;99.90;;;;;;5061269;28;20200;-74
2023/07/17 06:36:39;;;;;;;7.53;1.13;;;17.30;99.90;;;;;;5076139;28;20200;-74
2023/07/17 06:39:10;;;;;;;4.55;1.00;;;17.20;99.90;;;;;;5075848;28;20590;-74
2023/07/17 06:41:43;;;;;;;5.45;1.27;;;17.20;99.90;;;;;;5065302;28;20193;-74
2023/07/17 06:44:14;;;;;;;6.47;1.30;;;17.10;99.90;;;;;;5055793;28;20186;-74
2023/07/17 06:46:46;;;;;;;5.75;1.30;;;17.10;99.90;;;;;;5055695;28;20229;-74
2023/07/17 06:49:17;;;;;;;7.43;2.10;;;17.00;99.90;;;;;;5054957;28;20228;-75
2023/07/17 06:51:48;;;;;;;9.70;3.05;;;17.00;99.90;;;;;;5061668;28;20204;-75
2023/07/17 06:54:19;;;;;;;11.88;3.55;;;16.90;99.90;;;;;;5055588;28;20566;-74
2023/07/17 06:56:52;;;;;;;7.78;3.05;;;16.80;99.90;;;;;;5055833;28;20194;-75
2023/07/17 06:59:26;;;;;;;8.93;2.38;;;16.80;99.90;;;;;;5054609;28;20587;-74
2023/07/17 07:01:57;;;;;;;4.38;1.60;;;16.70;99.90;;;;;;5055625;28;20231;-75
2023/07/17 07:04:29;;;;;;;5.38;1.50;;;16.60;99.90;;;;;;5055435;28;20203;-74
2023/07/17 07:07:00;;;;;;;5.75;1.25;;;16.60;99.90;;;;;;5055579;28;20201;-75
2023/07/17 07:09:31;;;;;;;7.82;1.60;;;16.50;99.90;;;;;;5055143;28;20715;-75
2023/07/17 07:12:04;;;;;;;4.78;1.70;;;16.50;99.90;;;;;;5054935;28;20197;-75
2023/07/17 07:14:35;;;;;;;8.32;2.20;;;16.40;99.90;;;;;;5054697;28;20251;-74
2023/07/17 07:17:06;;;;;;;7.20;1.45;;;16.40;99.90;;;;;;5055462;28;20190;-75
2023/07/17 07:19:38;;;;;;;7.15;1.52;;;16.30;99.90;;;;;;5055286;28;20669;-74
2023/07/17 07:22:09;;;;;;;6.82;1.40;;;16.30;99.90;;;;;;5055977;28;20652;-74
2023/07/17 07:24:42;;;;;;;7.20;1.30;;;16.30;99.90;;;;;;5054577;28;20197;-75
2023/07/17 07:27:15;;;;;;;6.85;1.52;;;16.20;99.90;;;;;;5054739;28;20280;-75
2023/07/17 07:29:46;;;;;;;6.32;1.25;;;16.20;99.90;;;;;;5054592;28;20675;-75
2023/07/17 07:32:17;;;;;;;7.68;1.45;;;16.10;99.90;;;;;;5062620;28;20211;-74
2023/07/17 07:34:48;;;;;;;5.70;1.38;;;16.10;99.90;;;;;;5054577;28;20198;-75
2023/07/17 07:37:19;;;;;;;6.53;1.95;;;16.10;99.90;;;;;;5054709;28;20212;-75
2023/07/17 07:39:50;;;;;;;5.70;1.67;;;16.00;99.90;;;;;;5054699;28;20684;-74
2023/07/17 07:42:23;;;;;;;5.05;1.40;;;16.00;99.90;;;;;;5054323;28;20193;-75
2023/07/17 07:44:55;;;;;;;8.65;2.00;;;15.90;99.90;;;;;;5056552;28;20657;-75
2023/07/17 07:47:26;;;;;;;8.25;2.30;;;15.90;99.90;;;;;;5055900;28;20224;-75
2023/07/17 07:49:57;;;;;;;9.02;2.70;;;15.80;99.90;;;;;;5060405;28;20205;-74
2023/07/17 07:52:28;;;;;;;5.60;2.08;;;15.70;99.90;;;;;;5058718;28;20649;-74
2023/07/17 07:54:59;;;;;;;8.13;1.95;;;15.70;99.90;;;;;;5062198;28;20189;-74
2023/07/17 07:57:32;;;;;;;6.60;2.00;;;15.60;99.90;;;;;;5065960;28;20212;-74
2023/07/17 08:00:03;;;;;;;5.45;1.92;;;15.60;99.90;;;;;;5072870;28;20211;-74
2023/07/17 08:02:34;;;;;;;7.03;2.38;;;15.50;99.90;;;;;;5073778;28;20193;-75
2023/07/17 08:05:06;;;;;;;5.65;2.80;;;15.50;99.90;;;;;;5065514;28;20551;-74
2023/07/17 08:07:37;;;;;;;5.93;3.30;;;15.50;99.90;;;;;;5060395;28;20197;-74
2023/07/17 08:10:08;;;;;;;7.40;3.00;;;15.40;99.90;;;;;;5073143;28;20228;-75
2023/07/17 08:12:41;;;;;;;5.28;2.30;;;15.40;99.90;;;;;;5062876;28;20209;-75
2023/07/17 08:15:13;;;;;;;6.13;2.10;;;15.40;99.90;;;;;;5052041;28;20201;-74
2023/07/17 08:17:44;;;;;;;7.85;2.10;;;15.30;99.90;;;;;;5059512;28;20189;-75
2023/07/17 08:20:15;;;;;;;4.97;2.00;;;15.20;99.90;;;;;;5064101;28;20203;-75
2023/07/17 08:22:46;;;;;;;5.63;2.15;;;15.20;99.90;;;;;;5055765;28;20189;-75
2023/07/17 08:25:17;;;;;;;7.47;2.45;;;15.20;99.90;;;;;;5063420;28;20193;-75
2023/07/17 08:27:51;;;;;;;5.30;2.25;;;15.10;99.90;;;;;;5057875;28;20198;-75
2023/07/17 08:30:22;;;;;;;5.53;2.00;;;15.10;99.90;;;;;;5056840;28;20202;-74
2023/07/17 08:32:53;;;;;;;5.00;2.10;;;15.10;99.90;;;;;;5057282;28;20200;-75
2023/07/17 08:35:24;;;;;;;5.28;2.35;;;15.00;99.90;;;;;;5063467;28;20200;-76
2023/07/17 08:37:55;;;;;;;7.88;2.10;;;15.00;99.90;;;;;;5069616;28;20204;-75
2023/07/17 08:40:30;;;;;;;8.43;2.20;;;15.00;99.90;;;;;;5073377;28;20207;-75
2023/07/17 08:43:04;;;;;;;7.30;2.00;;;14.90;99.90;;;;;;5061296;28;20220;-75
2023/07/17 08:45:36;;;;;;;6.45;2.17;;;14.90;99.90;;;;;;5070213;28;20196;-75
2023/07/17 08:48:09;;;;;;;7.43;2.70;;;14.80;99.90;;;;;;5064265;28;20200;-74
2023/07/17 08:50:40;;;;;;;10.02;3.10;;;14.80;99.90;;;;;;5060364;28;20592;-74
2023/07/17 08:53:13;;;;;;;6.90;2.20;;;14.80;99.90;;;;;;5057270;28;20198;-75
2023/07/17 08:55:45;;;;;;;9.23;2.47;;;14.70;99.90;;;;;;5067718;28;20559;-75
2023/07/17 08:58:20;;;;;;;6.07;1.90;;;14.70;99.90;;;;;;5060123;28;20216;-75
2023/07/17 09:00:52;;;;;;;8.00;2.10;;;14.60;99.90;;;;;;5054491;28;20197;-74
2023/07/17 09:03:23;;;;;;;6.25;1.90;;;14.60;99.90;;;;;;5057947;28;20198;-74
2023/07/17 09:05:54;;;;;;;5.55;1.70;;;14.60;99.90;;;;;;5067003;28;20652;-74
2023/07/17 09:08:26;;;;;;;5.57;1.85;;;14.50;99.90;;;;;;5071269;28;20240;-74
2023/07/17 09:11:06;;;;;;;6.25;1.90;;;14.50;99.90;;;;;;5069671;28;20192;-75
2023/07/17 09:13:44;;;;;;;5.00;1.90;;;14.50;99.90;;;;;;5068383;28;20196;-74
2023/07/17 09:16:20;;;;;;;5.15;1.90;;;14.50;99.90;;;;;;5071079;28;20282;-74
2023/07/17 09:18:52;;;;;;;7.03;2.00;;;14.50;99.90;;;;;;5068839;28;20220;-75
2023/07/17 09:21:24;;;;;;;4.32;1.90;;;14.40;99.90;;;;;;5072284;28;20215;-75
2023/07/17 09:23:56;;;;;;;10.43;2.10;;;14.40;99.90;;;;;;5060499;28;20283;-74
2023/07/17 09:26:28;;;;;;;7.93;2.20;;;14.40;99.90;;;;;;5063323;28;20544;-74
2023/07/17 09:29:02;;;;;;;6.60;2.05;;;14.30;99.90;;;;;;5056684;28;20220;-74
2023/07/17 09:31:34;;;;;;;7.82;2.30;;;14.30;99.90;;;;;;5069715;28;20236;-74
2023/07/17 09:34:06;;;;;;;5.90;2.70;;;14.30;99.90;;;;;;5072824;28;20200;-74
2023/07/17 09:36:37;;;;;;;9.35;3.08;;;14.30;99.90;;;;;;5072175;28;20200;-74
2023/07/17 09:39:08;;;;;;;7.28;3.00;;;14.30;99.90;;;;;;5070778;28;20217;-74
2023/07/17 09:41:39;;;;;;;6.80;2.55;;;14.30;99.90;;;;;;5065010;28;20194;-74
2023/07/17 09:44:18;;;;;;;4.95;2.05;;;14.30;99.90;;;;;;5057829;28;20197;-74
2023/07/17 09:46:50;;;;;;;5.50;2.28;;;14.20;99.90;;;;;;5071196;28;20219;-74
2023/07/17 09:49:22;;;;;;;6.47;2.70;;;14.20;99.90;;;;;;5065181;28;20201;-74
2023/07/17 09:51:54;;;;;;;6.38;2.80;;;14.20;99.90;;;;;;5072643;28;20193;-75
2023/07/17 09:54:26;;;;;;;6.78;3.20;;;14.10;99.90;;;;;;5058617;28;20197;-74
2023/07/17 09:56:58;;;;;;;7.72;2.72;;;14.10;99.90;;;;;;5072537;28;20197;-74
2023/07/17 09:59:34;;;;;;;8.85;3.33;;;14.10;99.90;;;;;;5070537;28;20224;-74
2023/07/17 10:02:07;;;;;;;9.88;3.35;;;14.10;99.90;;;;;;5069881;28;20729;-74
2023/07/17 10:04:45;;;;;;;7.68;3.40;;;14.10;99.90;;;;;;5052680;28;20205;-75
2023/07/17 10:07:18;;;;;;;8.45;3.63;;;14.00;99.90;;;;;;5062011;28;20196;-75
2023/07/17 10:09:51;;;;;;;8.00;3.70;;;14.00;99.90;;;;;;5071255;28;20239;-75
2023/07/17 10:12:22;;;;;;;9.15;4.32;;;14.00;99.90;;;;;;5059118;28;20596;-75
2023/07/17 10:14:56;;;;;;;9.25;4.07;;;14.00;99.90;;;;;;5065347;28;20220;-75
2023/07/17 10:17:37;;;;;;;8.63;3.25;;;13.90;99.90;;;;;;5070657;28;20676;-75
2023/07/17 10:20:11;;;;;;;10.70;3.50;;;13.90;99.90;;;;;;5059061;28;20221;-75
2023/07/17 10:22:46;;;;;;;11.65;3.75;;;13.90;99.90;;;;;;5084226;28;20200;-75
2023/07/17 10:25:32;;;;;;;9.27;3.70;;;13.80;99.90;;;;;;5070691;28;20254;-75
2023/07/17 10:28:03;;;;;;;11.43;3.50;;;13.80;99.90;;;;;;5071045;28;20287;-75
2023/07/17 10:30:37;;;;;;;9.25;3.55;;;13.80;99.90;;;;;;5066662;28;20205;-75
2023/07/17 10:33:12;;;;;;;10.55;3.75;;;13.80;99.90;;;;;;5072917;28;20197;-75
2023/07/17 10:35:55;;;;;;;11.57;3.95;;;13.80;99.90;;;;;;5059122;28;20211;-75
2023/07/17 10:38:28;;;;;;;12.00;4.25;;;13.70;99.90;;;;;;5071867;28;20663;-76
2023/07/17 10:41:07;;;;;;;11.13;3.90;;;13.70;99.90;;;;;;5072089;28;20200;-75
2023/07/17 10:43:39;;;;;;;10.10;3.83;;;13.70;99.90;;;;;;5057040;28;20205;-75
2023/07/17 10:46:14;;;;;;;6.60;3.50;;;13.70;99.90;;;;;;5071884;28;20224;-75
2023/07/17 10:48:46;;;;;;;11.40;4.03;;;13.70;99.90;;;;;;5056491;28;20554;-75
2023/07/17 10:51:17;;;;;;;9.48;4.00;;;13.60;99.90;;;;;;5065926;28;20197;-75
2023/07/17 10:53:48;;;;;;;7.03;3.65;;;13.60;99.90;;;;;;5073501;28;20648;-75
2023/07/17 10:56:20;;;;;;;10.40;3.30;;;13.60;99.90;;;;;;5072447;28;20201;-75
2023/07/17 10:58:52;;;;;;;11.18;3.90;;;13.60;99.90;;;;;;5070442;28;20213;-74
2023/07/17 11:01:26;;;;;;;5.88;3.28;;;13.60;99.90;;;;;;5062937;28;20225;-75
2023/07/17 11:03:57;;;;;;;6.53;3.10;;;13.60;99.90;;;;;;5053779;28;20197;-75
2023/07/17 11:06:29;;;;;;;6.65;3.03;;;13.50;99.90;;;;;;5054784;28;20232;-75
2023/07/17 11:09:01;;;;;;;8.63;2.88;;;13.50;99.90;;;;;;5068110;28;20233;-75
2023/07/17 11:11:34;;;;;;;7.63;3.17;;;13.50;99.90;;;;;;5055613;28;20227;-75
2023/07/17 11:14:07;;;;;;;9.07;3.25;;;13.50;99.90;;;;;;5076928;28;20656;-75
2023/07/17 11:16:43;;;;;;;11.07;3.63;;;13.50;99.90;;;;;;5072097;28;20189;-75
2023/07/17 11:19:16;;;;;;;6.53;2.92;;;13.50;99.90;;;;;;5062115;28;20208;-75
2023/07/17 11:21:50;;;;;;;8.45;2.72;;;13.50;99.90;;;;;;5075363;28;20193;-75
2023/07/17 11:24:21;;;;;;;6.78;3.10;;;13.40;99.90;;;;;;5068352;28;20188;-75
2023/07/17 11:26:53;;;;;;;8.10;3.15;;;13.40;99.90;;;;;;5055431;28;20186;-75
2023/07/17 11:29:24;;;;;;;8.18;3.30;;;13.40;99.90;;;;;;5054702;28;20213;-75
2023/07/17 11:32:03;;;;;;;5.90;3.22;;;13.40;99.90;;;;;;5065244;28;20224;-75
2023/07/17 11:34:37;;;;;;;9.65;3.35;;;13.40;99.90;;;;;;5074976;28;20185;-75
2023/07/17 11:37:08;;;;;;;5.95;3.00;;;13.40;99.90;;;;;;5074885;28;20199;-75
2023/07/17 11:39:42;;;;;;;6.88;2.83;;;13.40;99.90;;;;;;5068724;28;20213;-75
2023/07/17 11:42:16;;;;;;;9.13;2.97;;;13.30;99.90;;;;;;5061258;28;20684;-75
2023/07/17 11:44:48;;;;;;;10.40;3.40;;;13.30;99.90;;;;;;5054633;28;20195;-75
2023/07/17 11:47:22;;;;;;;6.82;3.15;;;13.30;99.90;;;;;;5054697;28;20719;-75
2023/07/17 11:49:56;;;;;;;6.00;3.08;;;13.30;99.90;;;;;;5054302;28;20637;-75
2023/07/17 11:52:27;;;;;;;7.18;3.22;;;13.30;99.90;;;;;;5054312;28;20668;-75
2023/07/17 11:55:00;;;;;;;5.00;2.50;;;13.30;99.90;;;;;;5050931;28;20345;-75
2023/07/17 11:57:32;;;;;;;7.63;3.13;;;13.30;99.90;;;;;;5053703;28;20230;-75
2023/07/17 12:00:07;;;;;;;6.72;2.90;;;13.30;99.90;;;;;;5053758;28;20221;-75
2023/07/17 12:02:40;;;;;;;7.22;2.83;;;13.30;99.90;;;;;;5057229;28;20250;-75
2023/07/17 12:05:12;;;;;;;7.05;2.92;;;13.20;99.90;;;;;;5074361;28;20189;-75
2023/07/17 12:07:43;;;;;;;6.25;2.50;;;13.20;99.90;;;;;;5074307;28;20192;-75
2023/07/17 12:10:14;;;;;;;4.85;2.78;;;13.20;99.90;;;;;;5074207;28;20192;-75
2023/07/17 12:12:45;;;;;;;7.88;3.05;;;13.20;99.90;;;;;;5074243;28;20185;-75
2023/07/17 12:15:17;;;;;;;6.35;2.60;;;13.20;99.90;;;;;;5068192;28;20209;-76
2023/07/17 12:17:50;;;;;;;7.43;3.00;;;13.20;99.90;;;;;;5053250;28;20721;-76
2023/07/17 12:20:21;;;;;;;6.57;2.72;;;13.20;99.90;;;;;;5053981;28;20217;-75
2023/07/17 12:22:53;;;;;;;7.97;2.90;;;13.10;99.90;;;;;;5054109;28;20189;-75
2023/07/17 12:25:25;;;;;;;8.75;3.25;;;13.10;99.90;;;;;;5053775;28;20216;-75
2023/07/17 12:27:59;;;;;;;6.57;2.60;;;13.10;99.90;;;;;;5053498;28;20270;-75
2023/07/17 12:30:31;;;;;;;7.95;3.17;;;13.10;99.90;;;;;;5053635;28;20193;-75
2023/07/17 12:33:04;;;;;;;6.00;3.10;;;13.20;99.90;;;;;;5065916;28;20204;-75
2023/07/17 12:35:35;;;;;;;6.70;2.92;;;13.10;99.90;;;;;;5070822;28;20195;-75
2023/07/17 12:38:07;;;;;;;8.15;2.90;;;13.10;99.90;;;;;;5061968;28;20201;-75
2023/07/17 12:40:38;;;;;;;9.38;3.28;;;13.10;99.90;;;;;;5073716;28;20584;-75
2023/07/17 12:43:09;;;;;;;7.50;3.08;;;13.10;99.90;;;;;;5073561;28;20185;-75
2023/07/17 12:45:40;;;;;;;7.57;3.00;;;13.10;99.90;;;;;;5073747;28;20192;-75
2023/07/17 12:48:13;;;;;;;8.02;3.00;;;13.10;99.90;;;;;;5057413;28;20212;-75
2023/07/17 12:50:44;;;;;;;10.48;3.25;;;13.10;99.90;;;;;;5059288;28;20208;-75
2023/07/17 12:53:15;;;;;;;7.15;2.83;;;13.10;99.90;;;;;;5059735;28;20205;-75
2023/07/17 12:55:47;;;;;;;7.60;3.10;;;13.00;99.90;;;;;;5066726;28;20204;-75
2023/07/17 12:58:18;;;;;;;5.68;2.85;;;13.00;99.90;;;;;;5058003;28;20193;-74
2023/07/17 13:00:49;;;;;;;9.35;3.67;;;13.00;99.90;;;;;;5053736;28;20720;-75
2023/07/17 13:03:22;;;;;;;7.43;3.10;;;13.00;99.90;;;;;;5052807;28;20202;-75
2023/07/17 13:05:53;;;;;;;6.85;3.50;;;13.00;99.90;;;;;;5052651;28;20193;-75
2023/07/17 13:08:24;;;;;;;7.70;3.60;;;13.00;99.90;;;;;;5054017;28;20232;-75
2023/07/17 13:10:55;;;;;;;9.30;3.45;;;13.00;99.90;;;;;;5059827;28;20201;-75